| time (UTC) | temp F | wind direction | speed knots | gust knots | rain 1hr in | rain 24hr in | rain mn in | humidity % | barometer mb |
| 20260509160503 | 53 | 238 | 0.9 | 2.6 | 0.00 | 0.00 | 0.00 | 94 | 1015.2 |
| 20260509160003 | 53 | 215 | 0.0 | 2.6 | 0.00 | 0.00 | 0.00 | 94 | 1015.2 |
| 20260509155503 | 53 | 204 | 0.9 | 3.5 | 0.00 | 0.00 | 0.00 | 94 | 1015.2 |
| 20260509155003 | 52 | 205 | 0.9 | 3.5 | 0.00 | 0.00 | 0.00 | 94 | 1015.2 |
| 20260509154503 | 52 | 214 | 0.9 | 2.6 | 0.00 | 0.00 | 0.00 | 94 | 1015.2 |
| 20260509154024 | 52 | 225 | 0.9 | 3.5 | 0.00 | 0.00 | 0.00 | 94 | 1015.2 |
| 20260509153524 | 52 | 221 | 0.9 | 3.5 | 0.00 | 0.00 | 0.00 | 94 | 1015.2 |
| 20260509153003 | 52 | 210 | 0.0 | 2.6 | 0.00 | 0.00 | 0.00 | 94 | 1015.2 |
| 20260509152503 | 52 | 206 | 0.0 | 2.6 | 0.00 | 0.00 | 0.00 | 94 | 1015.2 |
| 20260509152003 | 52 | 205 | 0.9 | 2.6 | 0.00 | 0.00 | 0.00 | 94 | 1015.2 |
| 20260509151524 | 52 | 206 | 0.9 | 2.6 | 0.00 | 0.00 | 0.00 | 94 | 1015.2 |
| 20260509151003 | 52 | 206 | 0.9 | 2.6 | 0.00 | 0.00 | 0.00 | 94 | 1015.2 |
| 20260509150503 | 52 | 214 | 0.9 | 4.3 | 0.00 | 0.00 | 0.00 | 94 | 1015.2 |
| 20260509150003 | 52 | 206 | 0.9 | 4.3 | 0.00 | 0.00 | 0.00 | 94 | 1015.2 |
| 20260509145503 | 52 | 182 | 0.9 | 2.6 | 0.00 | 0.00 | 0.00 | 94 | 1015.2 |
| 20260509145003 | 51 | 180 | 0.9 | 2.6 | 0.00 | 0.00 | 0.00 | 94 | 1015.2 |
| 20260509144524 | 51 | 188 | 0.9 | 2.6 | 0.00 | 0.00 | 0.00 | 94 | 1015.2 |
| 20260509144003 | 51 | 211 | 0.0 | 2.6 | 0.00 | 0.00 | 0.00 | 94 | 1015.2 |
| 20260509143503 | 51 | 227 | 0.0 | 0.9 | 0.00 | 0.00 | 0.00 | 94 | 1015.2 |
| 20260509143024 | 51 | 227 | 0.0 | 0.9 | 0.00 | 0.00 | 0.00 | 94 | 1015.2 |
| 20260509142503 | 51 | 227 | 0.0 | 1.7 | 0.00 | 0.00 | 0.00 | 94 | 1015.2 |
| 20260509142024 | 51 | 227 | 0.0 | 1.7 | 0.00 | 0.00 | 0.00 | 93 | 1015.2 |
| 20260509141503 | 51 | 227 | 0.0 | 1.7 | 0.00 | 0.00 | 0.00 | 94 | 1015.2 |
| 20260509141003 | 51 | 227 | 0.0 | 1.7 | 0.00 | 0.00 | 0.00 | 94 | 1015.2 |
| 20260509140524 | 51 | 227 | 0.0 | 1.7 | 0.00 | 0.00 | 0.00 | 94 | 1015.2 |
| 20260509140024 | 51 | 0 | 0.0 | 0.0 | 0.00 | 0.00 | 0.00 | 94 | 1015.2 |
| 20260509135503 | 51 | 0 | 0.0 | 0.0 | 0.00 | 0.00 | 0.00 | 94 | 1015.2 |
| 20260509135003 | 51 | 0 | 0.0 | 0.0 | 0.00 | 0.00 | 0.00 | 93 | 1015.2 |
| 20260509134524 | 51 | 0 | 0.0 | 0.0 | 0.00 | 0.00 | 0.00 | 93 | 1015.2 |
| 20260509134003 | 51 | 0 | 0.0 | 0.0 | 0.00 | 0.00 | 0.00 | 93 | 1015.2 |
| 20260509133503 | 51 | 0 | 0.0 | 0.0 | 0.00 | 0.00 | 0.00 | 93 | 1015.2 |
| 20260509133004 | 51 | 0 | 0.0 | 0.0 | 0.00 | 0.00 | 0.00 | 93 | 1015.2 |
| 20260509132503 | 51 | 0 | 0.0 | 0.0 | 0.00 | 0.00 | 0.00 | 93 | 1015.2 |
| 20260509132003 | 51 | 0 | 0.0 | 0.0 | 0.00 | 0.00 | 0.00 | 93 | 1015.2 |
| 20260509131503 | 51 | 0 | 0.0 | 0.0 | 0.00 | 0.00 | 0.00 | 93 | 1015.2 |
| 20260509131003 | 51 | 227 | 0.0 | 2.6 | 0.00 | 0.00 | 0.00 | 93 | 1015.2 |
| 20260509130503 | 51 | 228 | 0.9 | 2.6 | 0.00 | 0.00 | 0.00 | 93 | 1015.2 |
| 20260509130024 | 51 | 229 | 0.9 | 2.6 | 0.00 | 0.00 | 0.00 | 93 | 1015.2 |
| 20260509125503 | 51 | 229 | 0.0 | 1.7 | 0.00 | 0.00 | 0.00 | 93 | 1015.2 |
| 20260509125003 | 51 | 229 | 0.0 | 0.9 | 0.00 | 0.00 | 0.00 | 93 | 1015.2 |
| 20260509124503 | 51 | 229 | 0.0 | 1.7 | 0.00 | 0.00 | 0.00 | 93 | 1015.2 |
| 20260509124003 | 51 | 229 | 0.0 | 1.7 | 0.00 | 0.00 | 0.00 | 93 | 1015.2 |
| 20260509123503 | 51 | 229 | 0.0 | 1.7 | 0.00 | 0.00 | 0.00 | 93 | 1015.2 |
| 20260509123003 | 51 | 229 | 0.0 | 1.7 | 0.00 | 0.00 | 0.00 | 93 | 1015.2 |
| 20260509122503 | 51 | 229 | 0.0 | 0.9 | 0.00 | 0.00 | 0.00 | 93 | 1015.2 |
| 20260509122003 | 51 | 229 | 0.0 | 0.9 | 0.00 | 0.00 | 0.00 | 93 | 1015.2 |
| 20260509121503 | 51 | 229 | 0.0 | 0.9 | 0.00 | 0.00 | 0.00 | 93 | 1015.2 |
| 20260509121003 | 51 | 229 | 0.0 | 0.9 | 0.00 | 0.00 | 0.00 | 93 | 1015.2 |
| 20260509120503 | 51 | 229 | 0.0 | 0.9 | 0.00 | 0.00 | 0.00 | 93 | 1015.2 |
| 20260509120022 | 51 | 229 | 0.0 | 0.9 | 0.00 | 0.00 | 0.00 | 93 | 1015.2 |
| 20260509115501 | 51 | 0 | 0.0 | 0.0 | 0.00 | 0.00 | 0.00 | 93 | 1015.2 |
| 20260509115001 | 51 | 0 | 0.0 | 0.0 | 0.00 | 0.00 | 0.00 | 93 | 1015.2 |
| 20260509114501 | 51 | 0 | 0.0 | 0.0 | 0.00 | 0.00 | 0.00 | 93 | 1015.2 |
| 20260509114001 | 51 | 0 | 0.0 | 0.0 | 0.00 | 0.00 | 0.00 | 93 | 1015.2 |
| 20260509113501 | 51 | 0 | 0.0 | 0.0 | 0.00 | 0.00 | 0.00 | 93 | 1015.2 |
| 20260509112501 | 51 | 0 | 0.0 | 0.0 | 0.00 | 0.00 | 0.00 | 93 | 1015.2 |
| 20260509112001 | 50 | 0 | 0.0 | 0.0 | 0.00 | 0.00 | 0.00 | 93 | 1015.2 |
| 20260509111501 | 50 | 0 | 0.0 | 0.0 | 0.00 | 0.00 | 0.00 | 93 | 1015.2 |
| 20260509111001 | 50 | 0 | 0.0 | 0.0 | 0.00 | 0.00 | 0.00 | 93 | 1015.2 |
| 20260509110501 | 50 | 0 | 0.0 | 0.0 | 0.00 | 0.00 | 0.00 | 93 | 1015.2 |
| 20260509110001 | 50 | 0 | 0.0 | 0.0 | 0.00 | 0.00 | 0.00 | 93 | 1017.9 |
| 20260509105501 | 50 | 0 | 0.0 | 0.0 | 0.00 | 0.00 | 0.00 | 93 | 1017.9 |
| 20260509105001 | 50 | 0 | 0.0 | 0.0 | 0.00 | 0.00 | 0.00 | 93 | 1017.9 |
| 20260509104502 | 51 | 0 | 0.0 | 0.0 | 0.00 | 0.00 | 0.00 | 93 | 1017.9 |
| 20260509104001 | 51 | 0 | 0.0 | 0.0 | 0.00 | 0.00 | 0.00 | 93 | 1017.9 |
| 20260509103501 | 51 | 0 | 0.0 | 0.0 | 0.00 | 0.00 | 0.00 | 93 | 1017.9 |
| 20260509103001 | 51 | 0 | 0.0 | 0.0 | 0.00 | 0.00 | 0.00 | 93 | 1017.9 |
| 20260509102502 | 51 | 228 | 0.0 | 0.9 | 0.00 | 0.00 | 0.00 | 93 | 1017.9 |
| 20260509102001 | 51 | 228 | 0.0 | 0.9 | 0.00 | 0.00 | 0.00 | 93 | 1017.9 |
| 20260509101501 | 51 | 228 | 0.0 | 0.9 | 0.00 | 0.00 | 0.00 | 93 | 1017.9 |
| 20260509101022 | 51 | 228 | 0.0 | 0.9 | 0.00 | 0.00 | 0.00 | 93 | 1017.9 |
| 20260509100501 | 51 | 0 | 0.0 | 0.0 | 0.00 | 0.00 | 0.00 | 93 | 1017.9 |
| 20260509100001 | 51 | 0 | 0.0 | 0.0 | 0.00 | 0.00 | 0.00 | 93 | 1017.9 |
| 20260509095501 | 51 | 228 | 0.0 | 0.9 | 0.00 | 0.00 | 0.00 | 93 | 1017.9 |
| 20260509095001 | 51 | 230 | 0.0 | 1.7 | 0.00 | 0.00 | 0.00 | 93 | 1017.9 |
| 20260509094501 | 51 | 231 | 0.0 | 1.7 | 0.00 | 0.00 | 0.00 | 93 | 1017.9 |
| 20260509094001 | 51 | 234 | 0.0 | 1.7 | 0.00 | 0.00 | 0.00 | 93 | 1017.9 |
| 20260509093501 | 51 | 234 | 0.0 | 1.7 | 0.00 | 0.00 | 0.00 | 93 | 1017.9 |
| 20260509093001 | 51 | 234 | 0.0 | 0.9 | 0.00 | 0.00 | 0.00 | 93 | 1017.9 |
| 20260509092522 | 51 | 234 | 0.9 | 2.6 | 0.00 | 0.00 | 0.00 | 93 | 1017.9 |
| 20260509092001 | 51 | 235 | 0.9 | 2.6 | 0.00 | 0.00 | 0.00 | 93 | 1017.9 |
| 20260509091502 | 51 | 234 | 0.9 | 2.6 | 0.00 | 0.00 | 0.00 | 93 | 1017.9 |
| 20260509091001 | 51 | 233 | 0.9 | 2.6 | 0.00 | 0.00 | 0.00 | 93 | 1017.9 |
| 20260509090501 | 51 | 223 | 0.9 | 2.6 | 0.00 | 0.00 | 0.00 | 93 | 1017.9 |
| 20260509090001 | 51 | 214 | 0.0 | 2.6 | 0.00 | 0.00 | 0.00 | 93 | 1017.9 |
| 20260509085502 | 51 | 213 | 0.0 | 1.7 | 0.00 | 0.00 | 0.00 | 93 | 1017.9 |
| 20260509085001 | 51 | 215 | 0.9 | 2.6 | 0.00 | 0.00 | 0.00 | 92 | 1017.9 |
| 20260509084502 | 51 | 215 | 0.0 | 2.6 | 0.00 | 0.00 | 0.00 | 92 | 1017.9 |
| 20260509084001 | 51 | 203 | 0.0 | 1.7 | 0.00 | 0.00 | 0.00 | 92 | 1017.9 |
| 20260509083501 | 51 | 202 | 0.9 | 4.3 | 0.00 | 0.00 | 0.00 | 92 | 1017.9 |
| 20260509083001 | 51 | 205 | 0.9 | 4.3 | 0.00 | 0.00 | 0.00 | 92 | 1017.9 |
| 20260509082501 | 51 | 208 | 0.9 | 1.7 | 0.00 | 0.00 | 0.00 | 92 | 1017.9 |
| 20260509082002 | 51 | 210 | 0.0 | 3.5 | 0.00 | 0.00 | 0.00 | 92 | 1017.9 |
| 20260509081522 | 51 | 229 | 0.0 | 3.5 | 0.00 | 0.00 | 0.00 | 92 | 1017.9 |
| 20260509081001 | 51 | 232 | 0.9 | 3.5 | 0.00 | 0.00 | 0.00 | 92 | 1017.9 |
| 20260509080502 | 51 | 220 | 0.0 | 3.5 | 0.00 | 0.00 | 0.00 | 92 | 1017.9 |
| 20260509080001 | 51 | 226 | 0.0 | 3.5 | 0.00 | 0.00 | 0.00 | 92 | 1017.9 |
| 20260509075501 | 51 | 233 | 0.0 | 3.5 | 0.00 | 0.00 | 0.00 | 92 | 1017.9 |
| 20260509075002 | 51 | 233 | 0.9 | 3.5 | 0.00 | 0.00 | 0.00 | 92 | 1017.9 |
| 20260509074501 | 51 | 235 | 0.9 | 3.5 | 0.00 | 0.00 | 0.00 | 92 | 1017.9 |
| 20260509074002 | 51 | 228 | 0.9 | 3.5 | 0.00 | 0.00 | 0.00 | 92 | 1017.9 |
| 20260509073501 | 51 | 212 | 0.9 | 2.6 | 0.00 | 0.00 | 0.00 | 92 | 1017.9 |
| 20260509073002 | 51 | 212 | 0.9 | 2.6 | 0.00 | 0.00 | 0.00 | 92 | 1017.9 |
| 20260509072501 | 51 | 226 | 0.9 | 2.6 | 0.00 | 0.00 | 0.00 | 92 | 1017.9 |
| 20260509072001 | 51 | 232 | 0.9 | 2.6 | 0.00 | 0.00 | 0.00 | 92 | 1017.9 |
| 20260509071501 | 51 | 236 | 0.0 | 2.6 | 0.00 | 0.00 | 0.00 | 92 | 1017.9 |
| 20260509071002 | 51 | 237 | 0.0 | 2.6 | 0.00 | 0.00 | 0.00 | 91 | 1017.9 |
| 20260509070501 | 51 | 226 | 0.9 | 5.2 | 0.00 | 0.00 | 0.00 | 91 | 1017.9 |
| 20260509070005 | 51 | 222 | 0.9 | 5.2 | 0.00 | 0.00 | 0.00 | 91 | 1017.9 |
| 20260509065501 | 52 | 217 | 0.9 | 3.5 | 0.00 | 0.00 | 0.00 | 91 | 1017.9 |
| 20260509065002 | 52 | 219 | 0.9 | 3.5 | 0.00 | 0.00 | 0.00 | 91 | 1017.9 |
| 20260509064501 | 52 | 230 | 0.0 | 3.5 | 0.00 | 0.00 | 0.00 | 91 | 1017.9 |
| 20260509064001 | 52 | 229 | 0.0 | 4.3 | 0.00 | 0.00 | 0.00 | 91 | 1017.9 |
| 20260509063502 | 52 | 221 | 0.9 | 4.3 | 0.00 | 0.00 | 0.00 | 91 | 1017.9 |
| 20260509063002 | 52 | 224 | 0.9 | 3.5 | 0.00 | 0.00 | 0.00 | 91 | 1017.9 |
| 20260509062502 | 52 | 228 | 0.9 | 3.5 | 0.00 | 0.00 | 0.00 | 91 | 1017.9 |
| 20260509062001 | 52 | 216 | 0.9 | 4.3 | 0.00 | 0.00 | 0.00 | 91 | 1017.9 |
| 20260509061502 | 52 | 204 | 0.9 | 4.3 | 0.00 | 0.00 | 0.00 | 91 | 1017.9 |
| 20260509061002 | 52 | 193 | 0.9 | 3.5 | 0.00 | 0.00 | 0.00 | 91 | 1017.9 |
| 20260509060523 | 52 | 180 | 0.0 | 4.3 | 0.00 | 0.00 | 0.00 | 91 | 1017.9 |
| 20260509060023 | 52 | 164 | 0.9 | 4.3 | 0.00 | 0.00 | 0.00 | 91 | 1017.9 |
| 20260509055502 | 52 | 182 | 0.9 | 4.3 | 0.00 | 0.00 | 0.00 | 91 | 1017.9 |
| 20260509055001 | 52 | 193 | 0.9 | 3.5 | 0.00 | 0.00 | 0.00 | 91 | 1017.9 |
| 20260509054501 | 52 | 173 | 0.9 | 3.5 | 0.00 | 0.00 | 0.00 | 90 | 1017.9 |
| 20260509054002 | 52 | 182 | 1.7 | 4.3 | 0.00 | 0.00 | 0.00 | 90 | 1017.9 |
| 20260509053501 | 52 | 187 | 0.9 | 4.3 | 0.00 | 0.00 | 0.00 | 90 | 1017.9 |
| 20260509053002 | 52 | 181 | 0.0 | 3.5 | 0.00 | 0.00 | 0.00 | 90 | 1017.9 |
| 20260509052502 | 52 | 215 | 0.0 | 3.5 | 0.00 | 0.00 | 0.00 | 90 | 1017.9 |
| 20260509052002 | 52 | 228 | 0.0 | 3.5 | 0.00 | 0.00 | 0.00 | 90 | 1017.9 |
| 20260509051523 | 53 | 223 | 0.0 | 3.5 | 0.00 | 0.00 | 0.00 | 90 | 1017.9 |
| 20260509051002 | 53 | 190 | 0.0 | 1.7 | 0.00 | 0.00 | 0.00 | 90 | 1017.9 |
| 20260509050502 | 53 | 191 | 0.9 | 2.6 | 0.00 | 0.00 | 0.00 | 90 | 1017.9 |
| 20260509050001 | 53 | 203 | 0.9 | 3.5 | 0.00 | 0.00 | 0.00 | 90 | 1017.9 |
| 20260509045502 | 53 | 206 | 0.9 | 3.5 | 0.00 | 0.00 | 0.00 | 90 | 1017.9 |
| 20260509045023 | 53 | 196 | 0.9 | 3.5 | 0.00 | 0.00 | 0.00 | 89 | 1017.9 |
| 20260509044502 | 53 | 205 | 0.0 | 3.5 | 0.00 | 0.00 | 0.00 | 89 | 1017.9 |
| 20260509044002 | 53 | 213 | 0.9 | 2.6 | 0.00 | 0.00 | 0.00 | 89 | 1017.9 |
| 20260509043502 | 53 | 209 | 0.9 | 2.6 | 0.00 | 0.00 | 0.00 | 89 | 1017.9 |
| 20260509043002 | 53 | 197 | 0.9 | 2.6 | 0.00 | 0.00 | 0.00 | 89 | 1017.9 |
| 20260509042502 | 53 | 196 | 0.9 | 4.3 | 0.00 | 0.00 | 0.00 | 89 | 1017.9 |
| 20260509042023 | 54 | 198 | 0.9 | 4.3 | 0.00 | 0.00 | 0.00 | 89 | 1017.9 |
| 20260509041502 | 54 | 201 | 0.9 | 3.5 | 0.00 | 0.00 | 0.00 | 89 | 1017.9 |
| 20260509041001 | 54 | 205 | 0.9 | 3.5 | 0.00 | 0.00 | 0.00 | 89 | 1017.9 |
| 20260509040502 | 54 | 222 | 0.9 | 3.5 | 0.00 | 0.00 | 0.00 | 89 | 1017.9 |
| 20260509040002 | 54 | 222 | 0.0 | 3.5 | 0.00 | 0.00 | 0.00 | 88 | 1017.9 |
| 20260509035502 | 54 | 225 | 0.0 | 0.9 | 0.00 | 0.00 | 0.00 | 88 | 1017.9 |
| 20260509035023 | 54 | 229 | 0.0 | 2.6 | 0.00 | 0.00 | 0.00 | 88 | 1017.9 |
| 20260509034523 | 54 | 233 | 0.9 | 2.6 | 0.00 | 0.00 | 0.00 | 88 | 1017.9 |
| 20260509034002 | 54 | 246 | 0.0 | 1.7 | 0.00 | 0.00 | 0.00 | 88 | 1017.9 |
| 20260509033502 | 54 | 251 | 0.0 | 1.7 | 0.00 | 0.00 | 0.00 | 88 | 1017.9 |
| 20260509033002 | 54 | 252 | 0.0 | 1.7 | 0.00 | 0.00 | 0.00 | 87 | 1017.9 |
| 20260509032502 | 54 | 253 | 0.0 | 1.7 | 0.00 | 0.00 | 0.00 | 87 | 1017.9 |
| 20260509032002 | 54 | 245 | 0.0 | 1.7 | 0.00 | 0.00 | 0.00 | 87 | 1017.9 |
| 20260509031502 | 55 | 231 | 0.9 | 2.6 | 0.00 | 0.00 | 0.00 | 86 | 1017.9 |
| 20260509031001 | 55 | 230 | 0.9 | 3.5 | 0.00 | 0.00 | 0.00 | 86 | 1017.9 |
| 20260509030501 | 55 | 234 | 0.9 | 3.5 | 0.00 | 0.00 | 0.00 | 86 | 1017.9 |
| 20260509030002 | 55 | 260 | 0.0 | 2.6 | 0.00 | 0.00 | 0.00 | 86 | 1017.9 |
| 20260509025501 | 55 | 290 | 0.0 | 2.6 | 0.00 | 0.00 | 0.00 | 85 | 1017.9 |
| 20260509025002 | 56 | 328 | 0.0 | 1.7 | 0.00 | 0.00 | 0.00 | 85 | 1017.9 |
| 20260509024502 | 56 | 290 | 0.0 | 4.3 | 0.00 | 0.00 | 0.00 | 84 | 1017.9 |
| 20260509024002 | 56 | 246 | 0.9 | 4.3 | 0.00 | 0.00 | 0.00 | 84 | 1017.9 |
| 20260509023501 | 56 | 233 | 0.9 | 3.5 | 0.00 | 0.00 | 0.00 | 83 | 1017.9 |
| 20260509023002 | 57 | 234 | 0.9 | 3.5 | 0.00 | 0.00 | 0.00 | 83 | 1017.9 |
| 20260509022523 | 57 | 238 | 0.9 | 4.3 | 0.00 | 0.00 | 0.00 | 82 | 1017.9 |
| 20260509022023 | 57 | 234 | 0.9 | 4.3 | 0.00 | 0.00 | 0.00 | 82 | 1017.9 |
| 20260509021502 | 58 | 220 | 0.0 | 2.6 | 0.00 | 0.00 | 0.00 | 82 | 1017.9 |
| 20260509021002 | 58 | 233 | 0.0 | 0.9 | 0.00 | 0.00 | 0.00 | 81 | 1017.9 |
| 20260509020502 | 58 | 308 | 0.0 | 1.7 | 0.00 | 0.00 | 0.00 | 81 | 1017.9 |
| 20260509020002 | 59 | 343 | 0.0 | 1.7 | 0.00 | 0.00 | 0.00 | 80 | 1017.9 |
| 20260509015502 | 59 | 346 | 0.9 | 4.3 | 0.00 | 0.00 | 0.00 | 80 | 1017.9 |
| 20260509015023 | 59 | 344 | 0.9 | 4.3 | 0.00 | 0.00 | 0.00 | 80 | 1017.9 |
| 20260509014502 | 60 | 307 | 0.9 | 4.3 | 0.00 | 0.00 | 0.00 | 80 | 1017.9 |
| 20260509014002 | 60 | 291 | 0.9 | 2.6 | 0.00 | 0.00 | 0.00 | 79 | 1017.9 |
| 20260509013523 | 60 | 324 | 0.9 | 4.3 | 0.00 | 0.00 | 0.00 | 79 | 1017.9 |
| 20260509013002 | 60 | 331 | 0.9 | 4.3 | 0.00 | 0.00 | 0.00 | 78 | 1017.9 |
| 20260509012523 | 61 | 325 | 0.9 | 4.3 | 0.00 | 0.00 | 0.00 | 78 | 1017.9 |
| 20260509012023 | 61 | 311 | 0.9 | 4.3 | 0.00 | 0.00 | 0.00 | 77 | 1017.9 |
| 20260509011502 | 62 | 284 | 0.9 | 2.6 | 0.00 | 0.00 | 0.00 | 77 | 1017.9 |
| 20260509011002 | 62 | 277 | 0.9 | 2.6 | 0.00 | 0.00 | 0.00 | 76 | 1017.9 |
| 20260509010502 | 63 | 319 | 0.0 | 2.6 | 0.00 | 0.00 | 0.00 | 76 | 1017.9 |
| 20260509010002 | 63 | 340 | 0.0 | 2.6 | 0.00 | 0.00 | 0.00 | 75 | 1017.9 |
| 20260509005502 | 64 | 351 | 0.9 | 4.3 | 0.00 | 0.00 | 0.00 | 74 | 1017.9 |
| 20260509005002 | 64 | 344 | 0.9 | 4.3 | 0.00 | 0.00 | 0.00 | 74 | 1017.9 |
| 20260509004502 | 64 | 344 | 0.9 | 7.0 | 0.00 | 0.00 | 0.00 | 74 | 1017.9 |
| 20260509004001 | 64 | 347 | 0.9 | 7.0 | 0.00 | 0.00 | 0.00 | 73 | 1017.9 |
| 20260509003502 | 64 | 347 | 0.9 | 7.0 | 0.00 | 0.00 | 0.00 | 74 | 1017.9 |
| 20260509003023 | 64 | 332 | 0.9 | 4.3 | 0.00 | 0.00 | 0.00 | 74 | 1017.9 |
| 20260509002502 | 64 | 319 | 0.9 | 4.3 | 0.00 | 0.00 | 0.00 | 74 | 1017.9 |
| 20260509002002 | 64 | 340 | 0.9 | 5.2 | 0.00 | 0.00 | 0.00 | 74 | 1017.9 |
| 20260509001502 | 64 | 340 | 0.9 | 7.0 | 0.00 | 0.00 | 0.00 | 74 | 1017.9 |
| 20260509001023 | 65 | 335 | 1.7 | 7.0 | 0.00 | 0.00 | 0.00 | 73 | 1017.9 |
| 20260509000502 | 65 | 316 | 0.9 | 5.2 | 0.00 | 0.00 | 0.00 | 73 | 1017.9 |
| 20260509000002 | 65 | 314 | 0.9 | 3.5 | 0.00 | 0.00 | 0.00 | 74 | 1017.9 |
| 20260508235502 | 65 | 345 | 0.9 | 6.1 | 0.00 | 0.00 | 0.00 | 73 | 1017.9 |
| 20260508235002 | 65 | 348 | 0.9 | 6.1 | 0.00 | 0.00 | 0.00 | 73 | 1017.9 |
| 20260508234502 | 65 | 336 | 0.9 | 4.3 | 0.00 | 0.00 | 0.00 | 73 | 1017.9 |
| 20260508234002 | 65 | 327 | 0.9 | 4.3 | 0.00 | 0.00 | 0.00 | 73 | 1017.9 |
| 20260508233502 | 65 | 339 | 0.9 | 4.3 | 0.00 | 0.00 | 0.00 | 73 | 1017.9 |
| 20260508233023 | 65 | 342 | 0.9 | 5.2 | 0.00 | 0.00 | 0.00 | 73 | 1017.9 |
| 20260508232502 | 65 | 244 | 0.9 | 5.2 | 0.00 | 0.00 | 0.00 | 73 | 1017.9 |
| 20260508232002 | 65 | 247 | 0.9 | 3.5 | 0.00 | 0.00 | 0.00 | 73 | 1017.9 |
| 20260508231523 | 65 | 253 | 0.9 | 3.5 | 0.00 | 0.00 | 0.00 | 71 | 1017.9 |
| 20260508231002 | 66 | 320 | 0.9 | 4.3 | 0.00 | 0.00 | 0.00 | 72 | 1017.9 |
| 20260508230502 | 65 | 325 | 0.9 | 4.3 | 0.00 | 0.00 | 0.00 | 72 | 1017.9 |
| 20260508230002 | 65 | 303 | 0.9 | 4.3 | 0.00 | 0.00 | 0.00 | 72 | 1017.9 |
| 20260508225502 | 65 | 324 | 0.9 | 5.2 | 0.00 | 0.00 | 0.00 | 73 | 1017.9 |
| 20260508225002 | 65 | 307 | 0.9 | 5.2 | 0.00 | 0.00 | 0.00 | 72 | 1017.9 |
| 20260508224502 | 65 | 256 | 0.9 | 4.3 | 0.00 | 0.00 | 0.00 | 73 | 1017.9 |
| 20260508224002 | 65 | 236 | 0.9 | 3.5 | 0.00 | 0.00 | 0.00 | 72 | 1017.9 |
| 20260508223523 | 65 | 244 | 0.9 | 3.5 | 0.00 | 0.00 | 0.00 | 72 | 1017.9 |
| 20260508223002 | 65 | 250 | 0.9 | 3.5 | 0.00 | 0.00 | 0.00 | 72 | 1017.9 |
| 20260508222502 | 65 | 264 | 0.9 | 4.3 | 0.00 | 0.00 | 0.00 | 73 | 1017.9 |
| 20260508222002 | 65 | 302 | 0.9 | 4.3 | 0.00 | 0.00 | 0.00 | 71 | 1017.9 |
| 20260508221523 | 65 | 264 | 0.9 | 4.3 | 0.00 | 0.00 | 0.00 | 72 | 1017.9 |
| 20260508221002 | 65 | 246 | 0.9 | 4.3 | 0.00 | 0.00 | 0.00 | 71 | 1017.9 |
| 20260508220523 | 65 | 294 | 0.9 | 3.5 | 0.00 | 0.00 | 0.00 | 72 | 1017.9 |
| 20260508220002 | 64 | 284 | 0.9 | 3.5 | 0.00 | 0.00 | 0.00 | 74 | 1017.9 |
| 20260508215502 | 64 | 235 | 1.7 | 7.0 | 0.00 | 0.00 | 0.00 | 75 | 1017.9 |
| 20260508215002 | 64 | 233 | 1.7 | 7.0 | 0.00 | 0.00 | 0.00 | 73 | 1017.9 |
| 20260508214502 | 64 | 311 | 1.7 | 4.3 | 0.00 | 0.00 | 0.00 | 75 | 1017.9 |
| 20260508214002 | 64 | 271 | 0.9 | 4.3 | 0.00 | 0.00 | 0.00 | 76 | 1017.9 |
| 20260508213502 | 63 | 315 | 0.9 | 7.0 | 0.00 | 0.00 | 0.00 | 74 | 1017.9 |
| 20260508213002 | 63 | 354 | 1.7 | 7.0 | 0.00 | 0.00 | 0.00 | 75 | 1017.9 |
| 20260508212502 | 63 | 346 | 1.7 | 7.0 | 0.00 | 0.00 | 0.00 | 76 | 1017.9 |
| 20260508212002 | 63 | 339 | 1.7 | 7.0 | 0.00 | 0.00 | 0.00 | 77 | 1017.9 |
| 20260508211523 | 63 | 344 | 0.9 | 4.3 | 0.00 | 0.00 | 0.00 | 78 | 1017.9 |
| 20260508211003 | 62 | 299 | 0.9 | 4.3 | 0.00 | 0.00 | 0.00 | 78 | 1017.9 |
| 20260508210502 | 62 | 248 | 0.9 | 4.3 | 0.00 | 0.00 | 0.00 | 79 | 1017.9 |
| 20260508210002 | 61 | 255 | 0.9 | 4.3 | 0.00 | 0.00 | 0.00 | 79 | 1017.9 |
| 20260508205502 | 61 | 317 | 0.9 | 4.3 | 0.00 | 0.00 | 0.00 | 80 | 1017.9 |
| 20260508205002 | 61 | 324 | 0.9 | 3.5 | 0.00 | 0.00 | 0.00 | 82 | 1017.9 |
| 20260508204502 | 60 | 312 | 0.9 | 4.3 | 0.00 | 0.00 | 0.00 | 83 | 1017.9 |
| 20260508204002 | 60 | 320 | 0.9 | 4.3 | 0.00 | 0.00 | 0.00 | 84 | 1017.9 |
| 20260508203523 | 59 | 290 | 0.0 | 3.5 | 0.00 | 0.00 | 0.00 | 85 | 1017.9 |
| 20260508203002 | 58 | 264 | 0.9 | 2.6 | 0.00 | 0.00 | 0.00 | 86 | 1017.9 |
| 20260508202502 | 58 | 260 | 0.9 | 4.3 | 0.00 | 0.00 | 0.00 | 87 | 1017.9 |
| 20260508202002 | 57 | 217 | 0.9 | 4.3 | 0.00 | 0.00 | 0.00 | 88 | 1017.9 |
| 20260508201502 | 57 | 286 | 0.9 | 4.3 | 0.00 | 0.00 | 0.00 | 89 | 1017.9 |
| 20260508201002 | 56 | 236 | 0.9 | 5.2 | 0.00 | 0.00 | 0.00 | 89 | 1017.9 |
| 20260508200523 | 55 | 221 | 1.7 | 5.2 | 0.00 | 0.00 | 0.00 | 88 | 1017.9 |
| 20260508200002 | 55 | 219 | 1.7 | 6.1 | 0.00 | 0.00 | 0.00 | 89 | 1017.9 |
| 20260508195502 | 55 | 228 | 1.7 | 6.1 | 0.00 | 0.00 | 0.00 | 88 | 1017.9 |
| 20260508195002 | 55 | 232 | 1.7 | 6.1 | 0.00 | 0.00 | 0.00 | 89 | 1017.9 |
| 20260508194502 | 55 | 225 | 0.9 | 6.1 | 0.00 | 0.00 | 0.00 | 89 | 1017.9 |
| 20260508194002 | 55 | 234 | 0.9 | 4.3 | 0.00 | 0.00 | 0.00 | 89 | 1017.9 |
| 20260508193502 | 55 | 234 | 0.9 | 5.2 | 0.00 | 0.00 | 0.00 | 89 | 1017.9 |
| 20260508193002 | 54 | 235 | 0.9 | 5.2 | 0.00 | 0.00 | 0.00 | 89 | 1017.9 |
| 20260508192502 | 54 | 242 | 1.7 | 7.8 | 0.00 | 0.00 | 0.00 | 89 | 1017.9 |
| 20260508192002 | 54 | 237 | 2.6 | 7.8 | 0.00 | 0.00 | 0.00 | 88 | 1017.9 |
| 20260508191502 | 54 | 226 | 1.7 | 4.3 | 0.00 | 0.00 | 0.00 | 88 | 1017.9 |
| 20260508191002 | 54 | 233 | 1.7 | 5.2 | 0.00 | 0.00 | 0.00 | 88 | 1017.9 |
| 20260508190502 | 54 | 235 | 1.7 | 7.8 | 0.00 | 0.00 | 0.00 | 88 | 1017.9 |
| 20260508190002 | 54 | 232 | 1.7 | 7.8 | 0.00 | 0.00 | 0.00 | 88 | 1017.9 |
| 20260508185502 | 54 | 232 | 1.7 | 7.0 | 0.00 | 0.00 | 0.00 | 88 | 1017.9 |
| 20260508185002 | 54 | 232 | 1.7 | 7.0 | 0.00 | 0.00 | 0.00 | 87 | 1017.9 |
| 20260508184502 | 55 | 234 | 0.9 | 7.0 | 0.00 | 0.00 | 0.00 | 87 | 1017.9 |
| 20260508184002 | 55 | 234 | 0.9 | 3.5 | 0.00 | 0.00 | 0.00 | 88 | 1017.9 |
| 20260508183502 | 55 | 222 | 0.9 | 2.6 | 0.00 | 0.00 | 0.00 | 88 | 1017.9 |
| 20260508183002 | 55 | 229 | 0.9 | 4.3 | 0.00 | 0.00 | 0.00 | 88 | 1017.9 |
| 20260508182502 | 54 | 224 | 0.9 | 4.3 | 0.00 | 0.00 | 0.00 | 88 | 1017.9 |
| 20260508182002 | 54 | 218 | 0.9 | 6.1 | 0.00 | 0.00 | 0.00 | 88 | 1017.9 |
| 20260508181502 | 54 | 226 | 0.9 | 6.1 | 0.00 | 0.00 | 0.00 | 89 | 1017.9 |
| 20260508181002 | 54 | 240 | 0.9 | 6.1 | 0.00 | 0.00 | 0.00 | 89 | 1017.9 |
| 20260508180502 | 54 | 245 | 0.9 | 6.1 | 0.00 | 0.00 | 0.00 | 89 | 1017.9 |
| 20260508180002 | 54 | 234 | 0.0 | 4.3 | 0.00 | 0.00 | 0.00 | 90 | 1017.9 |
| 20260508175502 | 54 | 232 | 0.0 | 2.6 | 0.00 | 0.00 | 0.00 | 90 | 1017.9 |
| 20260508175002 | 53 | 244 | 0.9 | 5.2 | 0.00 | 0.00 | 0.00 | 90 | 1017.9 |
| 20260508174502 | 53 | 246 | 0.9 | 5.2 | 0.00 | 0.00 | 0.00 | 90 | 1017.9 |
| 20260508174002 | 53 | 238 | 0.9 | 5.2 | 0.00 | 0.00 | 0.00 | 90 | 1017.9 |
| 20260508173502 | 53 | 230 | 0.9 | 4.3 | 0.00 | 0.00 | 0.00 | 90 | 1017.9 |
| 20260508173002 | 53 | 225 | 0.9 | 4.3 | 0.00 | 0.00 | 0.00 | 91 | 1017.9 |
| 20260508172502 | 53 | 223 | 0.9 | 3.5 | 0.00 | 0.00 | 0.00 | 91 | 1017.9 |
| 20260508172002 | 53 | 231 | 0.9 | 3.5 | 0.00 | 0.00 | 0.00 | 91 | 1017.9 |
| 20260508171502 | 52 | 243 | 0.9 | 3.5 | 0.00 | 0.00 | 0.00 | 91 | 1017.9 |
| 20260508171002 | 52 | 248 | 0.9 | 5.2 | 0.00 | 0.00 | 0.00 | 91 | 1017.9 |
| 20260508170502 | 52 | 237 | 0.9 | 5.2 | 0.00 | 0.00 | 0.00 | 91 | 1017.9 |
| 20260508170024 | 52 | 241 | 0.0 | 3.5 | 0.00 | 0.00 | 0.00 | 92 | 1017.9 |
| 20260508165523 | 52 | 264 | 0.0 | 1.7 | 0.00 | 0.00 | 0.00 | 91 | 1017.9 |
| 20260508165002 | 52 | 247 | 0.0 | 2.6 | 0.00 | 0.00 | 0.00 | 91 | 1017.9 |
| 20260508164502 | 52 | 231 | 0.9 | 3.5 | 0.00 | 0.00 | 0.00 | 92 | 1017.9 |
| 20260508164002 | 51 | 228 | 0.9 | 4.3 | 0.00 | 0.00 | 0.00 | 91 | 1017.9 |
| 20260508163523 | 51 | 224 | 1.7 | 4.3 | 0.00 | 0.00 | 0.00 | 92 | 1017.9 |
| 20260508163002 | 51 | 221 | 1.7 | 3.5 | 0.00 | 0.00 | 0.00 | 92 | 1017.9 |
| 20260508162502 | 51 | 228 | 0.9 | 6.1 | 0.00 | 0.00 | 0.00 | 92 | 1017.9 |
| 20260508162002 | 51 | 232 | 0.9 | 6.1 | 0.00 | 0.00 | 0.00 | 92 | 1017.9 |
| 20260508161523 | 51 | 213 | 0.9 | 5.2 | 0.00 | 0.00 | 0.00 | 92 | 1017.9 |
| 20260508161002 | 51 | 215 | 0.9 | 5.2 | 0.00 | 0.00 | 0.00 | 92 | 1017.9 |